Time;durP1;ratioP1;P1;durP2;ratioP2;P2;SDS_P1;SDS_P2;PMS_P1;PMS_P2;Temp;Humidity;BMP_temperature;BMP_pressure;BME280_temperature;BME280_humidity;BME280_pressure;Samples;Min_cycle;Max_cycle;Signal;HPM_P1;HPM_P2
2023/11/21 00:00:25;;;;;;;1.85;1.40;;;;;;;12.50;67.37;96499.06;4935269;28;20243;-84
2023/11/21 00:02:51;;;;;;;2.65;1.20;;;;;;;12.59;67.13;96509.72;4942864;28;20319;-82
2023/11/21 00:05:16;;;;;;;1.92;1.10;;;;;;;12.47;67.19;96500.38;4931927;28;20263;-83
2023/11/21 00:07:42;;;;;;;2.08;1.17;;;;;;;12.56;66.48;96505.81;4933380;28;20305;-83
2023/11/21 00:10:09;;;;;;;1.75;1.27;;;;;;;12.51;66.69;96498.03;4940227;28;20691;-84
2023/11/21 00:12:35;;;;;;;1.20;1.10;;;;;;;12.51;67.33;96493.56;4942981;28;20232;-84
2023/11/21 00:15:01;;;;;;;1.20;0.90;;;;;;;12.58;66.98;96506.31;4963432;28;20706;-84
2023/11/21 00:17:27;;;;;;;2.00;1.25;;;;;;;12.52;66.93;96499.56;4928822;28;20262;-84
2023/11/21 00:19:52;;;;;;;2.33;1.00;;;;;;;12.50;67.26;96497.22;4937059;28;20172;-84
2023/11/21 00:22:18;;;;;;;1.52;1.00;;;;;;;12.48;67.57;96491.50;4930685;28;20206;-83
2023/11/21 00:24:44;;;;;;;1.58;1.08;;;;;;;12.56;67.26;96490.16;4951846;28;20718;-82
2023/11/21 00:27:10;;;;;;;2.03;1.50;;;;;;;12.62;66.30;96498.72;4966842;28;20247;-84
2023/11/21 00:29:35;;;;;;;1.48;1.10;;;;;;;12.47;67.27;96489.16;4948843;28;20617;-84
2023/11/21 00:32:00;;;;;;;1.55;1.20;;;;;;;12.52;67.47;96492.50;4946191;28;20343;-83
2023/11/21 00:34:26;;;;;;;6.05;2.20;;;;;;;12.55;66.98;96499.03;4938126;28;20207;-82
2023/11/21 00:36:51;;;;;;;1.58;1.45;;;;;;;12.34;67.12;96495.81;4964103;28;20140;-83
2023/11/21 00:39:16;;;;;;;4.82;1.45;;;;;;;12.43;67.53;96488.94;4946744;28;20661;-84
2023/11/21 00:41:42;;;;;;;2.38;1.30;;;;;;;12.38;67.56;96494.19;4953324;28;20258;-84
2023/11/21 00:44:07;;;;;;;2.10;1.17;;;;;;;12.58;66.61;96497.69;4924295;28;20204;-84
2023/11/21 00:46:33;;;;;;;2.67;1.17;;;;;;;12.54;67.08;96498.25;4953765;28;20281;-83
2023/11/21 00:48:58;;;;;;;2.78;1.35;;;;;;;12.64;67.15;96494.00;4928841;28;20592;-84
2023/11/21 00:51:24;;;;;;;2.00;1.52;;;;;;;12.58;67.34;96495.88;4932008;28;20200;-83
2023/11/21 00:53:49;;;;;;;4.22;1.30;;;;;;;12.55;66.75;96484.13;4949661;28;20118;-84
2023/11/21 00:56:15;;;;;;;1.90;1.13;;;;;;;12.61;66.99;96497.16;4927163;28;20155;-83
2023/11/21 00:58:43;;;;;;;3.45;1.48;;;;;;;12.65;66.86;96487.72;4942093;28;20181;-83
2023/11/21 01:01:09;;;;;;;2.33;1.25;;;;;;;12.67;66.54;96489.00;4933241;28;20199;-84
2023/11/21 01:03:34;;;;;;;1.70;1.30;;;;;;;12.46;67.17;96477.94;4934119;28;20191;-84
2023/11/21 01:06:00;;;;;;;2.72;2.00;;;;;;;12.53;67.31;96490.69;4946010;28;20278;-83
2023/11/21 01:08:25;;;;;;;2.65;1.40;;;;;;;12.52;66.75;96489.91;4939996;28;20594;-82
2023/11/21 01:10:51;;;;;;;2.03;1.20;;;;;;;12.60;67.35;96508.66;4938355;28;20302;-84
2023/11/21 01:13:16;;;;;;;1.52;0.88;;;;;;;12.57;66.79;96501.38;4942719;28;20218;-83
2023/11/21 01:15:42;;;;;;;2.13;1.30;;;;;;;12.57;67.47;96504.75;4955530;28;20287;-84
2023/11/21 01:18:08;;;;;;;2.03;1.13;;;;;;;12.59;66.91;96504.47;4950117;28;20273;-82
2023/11/21 01:20:34;;;;;;;2.20;1.30;;;;;;;12.69;67.13;96512.25;4946802;28;20664;-83
2023/11/21 01:22:59;;;;;;;1.67;1.38;;;;;;;12.57;66.74;96502.16;4932118;28;20199;-83
2023/11/21 01:25:25;;;;;;;1.75;1.20;;;;;;;12.65;66.79;96498.94;4958078;28;20287;-84
2023/11/21 01:27:51;;;;;;;1.70;0.95;;;;;;;12.58;67.11;96502.91;4956755;28;20216;-83
2023/11/21 01:30:17;;;;;;;3.28;1.85;;;;;;;12.63;67.12;96510.72;4923166;28;20261;-84
2023/11/21 01:32:43;;;;;;;1.98;1.25;;;;;;;12.65;66.93;96513.84;4941935;28;20368;-84
2023/11/21 01:35:10;;;;;;;1.65;1.13;;;;;;;12.54;67.04;96500.88;4935845;28;20207;-84
2023/11/21 01:37:36;;;;;;;2.53;1.30;;;;;;;12.64;66.76;96501.84;4971161;28;20173;-84
2023/11/21 01:40:02;;;;;;;2.15;1.80;;;;;;;12.61;67.10;96507.59;4934635;28;20244;-84
2023/11/21 01:42:29;;;;;;;2.25;1.40;;;;;;;12.68;66.68;96508.84;4946038;28;20811;-83
2023/11/21 01:44:54;;;;;;;1.45;1.35;;;;;;;12.66;67.13;96515.38;4926604;28;20174;-84
2023/11/21 01:47:21;;;;;;;1.27;1.17;;;;;;;12.61;66.71;96497.94;4942271;28;20943;-84
2023/11/21 01:49:46;;;;;;;3.05;1.65;;;;;;;12.68;67.39;96508.06;4950595;28;20222;-84
2023/11/21 01:52:12;;;;;;;4.28;1.80;;;;;;;12.66;66.62;96510.16;4958703;28;20659;-84
2023/11/21 01:54:38;;;;;;;4.05;1.92;;;;;;;12.66;66.96;96516.19;4945841;28;20413;-84
2023/11/21 01:57:06;;;;;;;3.30;1.85;;;;;;;12.65;67.05;96508.63;4930296;28;20316;-84
2023/11/21 01:59:36;;;;;;;3.55;1.70;;;;;;;12.72;67.12;96516.91;4940493;28;20313;-84
2023/11/21 02:02:11;;;;;;;2.72;1.48;;;;;;;12.68;67.23;96511.47;4937578;28;20304;-84
2023/11/21 02:04:36;;;;;;;3.00;1.90;;;;;;;12.58;67.95;96519.38;4937550;28;20554;-84
2023/11/21 02:07:05;;;;;;;3.85;1.70;;;;;;;12.57;66.93;96509.22;4947037;28;20192;-84
2023/11/21 02:09:31;;;;;;;2.58;2.03;;;;;;;12.69;67.22;96515.63;4956325;28;20161;-83
2023/11/21 02:11:58;;;;;;;2.67;1.70;;;;;;;12.53;67.20;96514.97;4942890;28;20212;-83
2023/11/21 02:14:27;;;;;;;3.50;1.65;;;;;;;12.66;66.45;96518.00;4961131;28;20254;-84
2023/11/21 02:16:53;;;;;;;2.20;1.80;;;;;;;12.58;66.91;96515.97;4942893;28;20191;-84
2023/11/21 02:19:22;;;;;;;5.60;2.17;;;;;;;12.61;66.30;96528.50;4958115;28;20755;-84
2023/11/21 02:21:49;;;;;;;3.10;1.70;;;;;;;12.58;67.80;96508.94;4940595;28;20212;-83
2023/11/21 02:24:15;;;;;;;3.55;2.05;;;;;;;12.65;67.05;96512.00;4919047;28;20313;-84
2023/11/21 02:26:41;;;;;;;2.20;1.88;;;;;;;12.69;66.79;96518.22;4946850;28;20189;-84
2023/11/21 02:29:10;;;;;;;2.17;1.60;;;;;;;12.69;66.77;96520.84;4937768;28;20192;-84
2023/11/21 02:31:37;;;;;;;2.38;1.60;;;;;;;12.70;67.06;96517.19;4922163;28;20188;-85
2023/11/21 02:34:03;;;;;;;2.22;1.70;;;;;;;12.62;67.22;96514.38;4921010;28;20322;-84
2023/11/21 02:36:29;;;;;;;1.70;1.45;;;;;;;12.58;67.46;96518.59;4939967;28;20364;-84
2023/11/21 02:38:55;;;;;;;2.13;1.30;;;;;;;12.56;67.33;96511.03;4958208;28;20211;-83
2023/11/21 02:41:20;;;;;;;1.65;1.48;;;;;;;12.67;66.55;96520.34;4941362;28;20672;-83
2023/11/21 02:43:46;;;;;;;2.42;1.27;;;;;;;12.78;66.37;96520.25;4932424;28;20636;-84
2023/11/21 02:46:11;;;;;;;2.58;1.50;;;;;;;12.73;67.33;96521.88;4928488;28;20321;-84
2023/11/21 02:48:36;;;;;;;2.40;1.63;;;;;;;12.63;67.37;96524.56;4941002;28;20200;-84
2023/11/21 02:51:02;;;;;;;1.40;1.30;;;;;;;12.69;66.68;96520.06;4948842;28;20253;-84
2023/11/21 02:53:27;;;;;;;2.13;1.50;;;;;;;12.60;67.53;96517.28;4925794;28;20208;-84
2023/11/21 02:55:53;;;;;;;2.17;1.33;;;;;;;12.54;67.43;96519.16;4943224;28;20201;-84
2023/11/21 02:58:18;;;;;;;1.42;1.13;;;;;;;12.61;66.89;96518.03;4958231;28;20327;-84
2023/11/21 03:00:43;;;;;;;1.92;1.40;;;;;;;12.63;67.05;96513.31;4956894;28;20336;-84
2023/11/21 03:03:09;;;;;;;1.58;1.48;;;;;;;12.60;67.47;96519.13;4953802;28;20173;-85
2023/11/21 03:05:35;;;;;;;2.25;1.58;;;;;;;12.58;67.62;96511.56;4942112;28;20187;-84
2023/11/21 03:08:01;;;;;;;2.10;1.95;;;;;;;12.63;67.48;96523.75;4945495;28;20165;-84
2023/11/21 03:10:27;;;;;;;1.50;1.30;;;;;;;12.61;67.49;96523.25;4969927;28;20203;-83
2023/11/21 03:12:52;;;;;;;3.08;1.90;;;;;;;12.51;67.37;96514.47;4943753;28;20399;-84
2023/11/21 03:15:18;;;;;;;2.45;1.63;;;;;;;12.55;67.54;96517.31;4938192;28;20177;-84
2023/11/21 03:17:43;;;;;;;2.22;1.90;;;;;;;12.48;67.78;96514.22;4938888;28;20259;-84
2023/11/21 03:20:10;;;;;;;1.33;1.10;;;;;;;12.50;67.59;96523.34;4937761;28;20190;-84
2023/11/21 03:22:37;;;;;;;1.48;1.30;;;;;;;12.50;67.53;96510.28;4960615;28;20264;-84
2023/11/21 03:25:03;;;;;;;2.17;1.60;;;;;;;12.65;67.09;96530.28;4947502;28;20271;-84
2023/11/21 03:27:28;;;;;;;2.13;1.92;;;;;;;12.68;66.82;96534.97;4931078;28;20420;-83
2023/11/21 03:29:54;;;;;;;2.97;2.00;;;;;;;12.66;66.62;96529.25;4936691;28;20195;-85
2023/11/21 03:32:19;;;;;;;1.83;1.73;;;;;;;12.58;67.26;96523.81;4948205;28;20200;-84
2023/11/21 03:34:58;;;;;;;1.80;1.20;;;;;;;12.71;66.64;96542.28;4928285;28;20282;-84
2023/11/21 03:37:24;;;;;;;2.45;1.92;;;;;;;12.58;67.19;96540.28;4925445;28;20210;-85
2023/11/21 03:39:50;;;;;;;4.25;1.80;;;;;;;12.60;67.87;96547.84;4940755;28;20199;-84
2023/11/21 03:42:16;;;;;;;2.40;1.90;;;;;;;12.64;67.47;96538.41;4956589;28;20217;-84
2023/11/21 03:44:41;;;;;;;4.93;4.35;;;;;;;12.67;66.82;96535.25;4935131;28;20655;-84
2023/11/21 03:47:07;;;;;;;5.15;4.25;;;;;;;12.79;66.80;96537.50;4924390;28;20259;-84
2023/11/21 03:49:32;;;;;;;6.80;4.57;;;;;;;12.75;66.60;96539.88;4955734;28;20192;-84
2023/11/21 03:51:57;;;;;;;5.40;3.83;;;;;;;12.65;67.26;96539.97;4954521;28;20203;-83
2023/11/21 03:54:23;;;;;;;11.77;9.60;;;;;;;12.64;67.71;96541.00;4939214;28;20144;-84
2023/11/21 03:56:49;;;;;;;6.40;4.53;;;;;;;12.73;66.71;96550.59;4928403;28;20782;-84
2023/11/21 03:59:14;;;;;;;10.82;8.63;;;;;;;12.63;67.08;96550.69;4958290;28;20353;-84
2023/11/21 04:01:39;;;;;;;10.07;7.95;;;;;;;12.62;67.43;96564.00;4945884;28;20177;-84
2023/11/21 04:04:05;;;;;;;5.90;5.30;;;;;;;12.59;67.52;96551.50;4948519;28;20292;-84
2023/11/21 04:06:32;;;;;;;5.80;5.28;;;;;;;12.54;67.26;96560.94;4941947;28;20713;-85
2023/11/21 04:08:58;;;;;;;6.40;5.80;;;;;;;12.57;67.06;96543.16;4937065;28;20274;-84
2023/11/21 04:11:23;;;;;;;5.90;5.25;;;;;;;12.63;67.35;96552.50;4926772;28;20227;-85
2023/11/21 04:13:49;;;;;;;5.18;4.68;;;;;;;12.57;66.93;96549.16;4949279;28;20287;-85
2023/11/21 04:16:14;;;;;;;4.70;4.03;;;;;;;12.59;67.19;96556.72;4930918;28;20220;-85
2023/11/21 04:18:39;;;;;;;4.63;4.15;;;;;;;12.60;67.30;96556.44;4958807;28;20263;-85
2023/11/21 04:21:05;;;;;;;3.30;3.00;;;;;;;12.58;67.00;96571.63;4945752;28;20630;-84
2023/11/21 04:23:34;;;;;;;3.08;2.70;;;;;;;12.55;67.84;96572.16;4950052;28;20371;-85
2023/11/21 04:26:01;;;;;;;4.13;3.65;;;;;;;12.45;66.65;96546.88;4952753;28;20612;-84
2023/11/21 04:28:27;;;;;;;5.00;4.50;;;;;;;12.73;67.11;96563.66;4940103;28;20261;-83
2023/11/21 04:30:53;;;;;;;4.53;4.03;;;;;;;12.69;66.88;96565.25;4927425;28;20294;-82
2023/11/21 04:33:21;;;;;;;3.38;2.72;;;;;;;12.75;66.69;96568.63;4964391;28;20247;-83
2023/11/21 04:35:46;;;;;;;3.22;2.55;;;;;;;12.65;66.89;96577.31;4958890;28;20152;-84
2023/11/21 04:38:12;;;;;;;2.45;2.00;;;;;;;12.63;67.16;96587.25;4928790;28;20200;-85
2023/11/21 04:40:37;;;;;;;3.30;2.08;;;;;;;12.58;67.62;96586.47;4946854;28;20075;-85
2023/11/21 04:43:03;;;;;;;2.60;1.80;;;;;;;12.55;67.84;96578.16;4935829;28;20311;-85
2023/11/21 04:45:29;;;;;;;2.10;1.40;;;;;;;12.59;66.92;96572.38;4945947;28;20204;-84
2023/11/21 04:47:54;;;;;;;1.25;0.88;;;;;;;12.63;66.61;96587.25;4926373;28;20641;-85
2023/11/21 04:50:20;;;;;;;1.35;1.17;;;;;;;12.69;66.84;96599.19;4948641;28;20285;-85
2023/11/21 04:52:45;;;;;;;1.10;1.00;;;;;;;12.62;66.70;96592.75;4939282;28;20676;-84
2023/11/21 04:55:10;;;;;;;1.63;1.52;;;;;;;12.51;67.08;96600.63;4934495;28;20644;-85
2023/11/21 04:57:36;;;;;;;2.65;1.98;;;;;;;12.61;67.21;96599.00;4946967;28;20188;-83
2023/11/21 05:00:05;;;;;;;1.73;1.63;;;;;;;12.49;66.18;96607.16;4951183;28;20207;-83
2023/11/21 05:02:31;;;;;;;1.30;1.08;;;;;;;12.30;67.76;96607.00;4930719;28;20196;-86
2023/11/21 05:04:57;;;;;;;1.20;1.10;;;;;;;12.38;67.61;96613.50;4928936;28;20236;-84
2023/11/21 05:07:22;;;;;;;1.65;1.20;;;;;;;12.38;67.35;96623.94;4941392;28;20200;-85
2023/11/21 05:09:47;;;;;;;1.85;1.40;;;;;;;12.30;67.50;96617.44;4941423;28;20293;-84
2023/11/21 05:12:14;;;;;;;2.30;1.98;;;;;;;12.32;67.63;96629.19;4936318;28;20243;-83
2023/11/21 05:14:39;;;;;;;2.17;1.67;;;;;;;12.18;67.34;96612.53;4946824;28;20287;-84
2023/11/21 05:17:05;;;;;;;1.88;1.75;;;;;;;12.22;68.05;96615.41;4959212;28;20572;-85
2023/11/21 05:19:31;;;;;;;2.53;1.70;;;;;;;12.37;67.86;96633.59;4964428;28;20208;-85
2023/11/21 05:21:58;;;;;;;1.85;1.48;;;;;;;11.92;68.73;96624.91;4944404;28;20324;-84
2023/11/21 05:24:24;;;;;;;3.00;1.70;;;;;;;12.24;68.17;96636.81;4922342;28;20226;-84
2023/11/21 05:26:49;;;;;;;2.22;1.70;;;;;;;12.22;67.92;96631.84;4943816;28;20536;-84
2023/11/21 05:29:14;;;;;;;1.90;1.40;;;;;;;12.39;67.29;96635.94;4944112;28;20270;-84
2023/11/21 05:31:40;;;;;;;2.63;1.70;;;;;;;12.22;67.74;96637.06;4964573;28;20211;-85
2023/11/21 05:34:06;;;;;;;2.70;1.65;;;;;;;12.24;67.77;96649.88;4950576;28;20652;-85
2023/11/21 05:36:31;;;;;;;2.25;1.90;;;;;;;12.16;68.19;96654.56;4929265;28;20199;-84
2023/11/21 05:38:56;;;;;;;2.13;1.70;;;;;;;12.29;67.42;96657.66;4955405;28;20256;-85
2023/11/21 05:41:22;;;;;;;2.17;1.50;;;;;;;12.43;67.52;96663.88;4955902;28;20596;-85
2023/11/21 05:43:47;;;;;;;3.33;2.13;;;;;;;12.45;67.25;96661.00;4954544;28;20401;-84
2023/11/21 05:46:13;;;;;;;1.85;1.48;;;;;;;12.53;67.22;96663.03;4957049;28;20219;-84
2023/11/21 05:48:38;;;;;;;2.30;1.85;;;;;;;12.43;66.25;96663.88;4941190;28;20243;-85
2023/11/21 05:51:08;;;;;;;2.47;1.73;;;;;;;12.40;66.91;96667.00;4953302;28;20141;-85
2023/11/21 05:53:34;;;;;;;2.72;1.40;;;;;;;12.35;67.25;96677.47;4971009;28;20207;-85
2023/11/21 05:55:59;;;;;;;1.50;1.30;;;;;;;12.32;66.71;96660.53;4957287;28;20208;-84
2023/11/21 05:58:24;;;;;;;2.53;1.60;;;;;;;12.29;66.71;96674.09;4947883;28;20184;-85
2023/11/21 06:00:50;;;;;;;1.65;1.33;;;;;;;12.32;66.80;96673.56;4957014;28;20284;-85
2023/11/21 06:03:17;;;;;;;1.30;1.05;;;;;;;12.44;66.64;96688.94;4964433;28;20180;-85
2023/11/21 06:05:43;;;;;;;1.73;1.20;;;;;;;12.24;67.22;96675.97;4950837;28;20233;-84
2023/11/21 06:08:08;;;;;;;2.28;1.30;;;;;;;12.22;66.93;96681.44;4953490;28;20259;-85
2023/11/21 06:10:34;;;;;;;2.45;1.55;;;;;;;12.20;67.13;96680.13;4939446;28;20652;-84
2023/11/21 06:12:59;;;;;;;2.28;1.58;;;;;;;12.20;66.76;96680.94;4930101;28;20246;-83
2023/11/21 06:15:24;;;;;;;1.90;1.65;;;;;;;12.21;67.18;96692.16;4973408;28;20087;-85
2023/11/21 06:17:52;;;;;;;1.30;1.20;;;;;;;12.22;66.45;96693.69;4939309;28;20294;-84
2023/11/21 06:20:20;;;;;;;1.40;1.20;;;;;;;12.26;66.88;96695.50;4971633;28;20232;-84
2023/11/21 06:22:47;;;;;;;3.95;1.80;;;;;;;12.10;67.06;96702.63;4937345;28;20172;-85
2023/11/21 06:25:13;;;;;;;1.20;1.00;;;;;;;12.18;67.93;96704.69;4957161;28;20515;-84
2023/11/21 06:27:44;;;;;;;2.17;1.67;;;;;;;12.38;66.30;96703.03;4943588;28;21060;-85
2023/11/21 06:30:11;;;;;;;1.80;1.50;;;;;;;12.26;66.70;96700.72;4943104;28;20305;-85
2023/11/21 06:32:37;;;;;;;2.97;1.85;;;;;;;12.20;67.40;96711.47;4941720;28;20294;-85
2023/11/21 06:35:04;;;;;;;3.50;1.67;;;;;;;12.13;67.50;96704.72;4933577;28;20263;-86
2023/11/21 06:37:29;;;;;;;1.48;1.38;;;;;;;12.27;67.04;96715.38;4968436;28;20161;-85
2023/11/21 06:40:03;;;;;;;3.03;1.80;;;;;;;12.20;67.00;96714.06;4949394;28;20334;-85
2023/11/21 06:42:29;;;;;;;3.33;3.03;;;;;;;11.97;67.30;96709.16;4955446;28;20196;-85
2023/11/21 06:44:57;;;;;;;7.40;5.85;;;;;;;12.03;67.54;96716.97;4947147;28;20230;-86
2023/11/21 06:47:24;;;;;;;4.72;4.22;;;;;;;12.12;66.63;96724.00;4953244;28;20195;-85
2023/11/21 06:49:50;;;;;;;3.35;2.40;;;;;;;12.18;66.13;96724.78;4941217;28;20348;-85
2023/11/21 06:52:16;;;;;;;4.63;3.20;;;;;;;12.13;66.58;96733.41;4950651;28;20247;-85
2023/11/21 06:54:41;;;;;;;1.92;1.67;;;;;;;12.10;67.14;96744.38;4931738;28;20203;-84
2023/11/21 06:57:07;;;;;;;5.03;2.78;;;;;;;12.14;66.97;96745.41;4950559;28;20104;-84
2023/11/21 06:59:33;;;;;;;9.30;8.00;;;;;;;12.14;67.32;96749.84;4939983;28;20174;-84
2023/11/21 07:01:58;;;;;;;4.38;3.00;;;;;;;12.13;66.40;96756.91;4960827;28;20680;-84
2023/11/21 07:04:25;;;;;;;3.47;1.90;;;;;;;12.12;66.96;96760.53;4959179;28;20286;-84
2023/11/21 07:06:51;;;;;;;4.40;2.95;;;;;;;12.09;66.93;96758.47;4938455;28;20188;-83
2023/11/21 07:09:16;;;;;;;2.83;2.47;;;;;;;12.09;67.06;96768.91;4944865;28;20351;-84
2023/11/21 07:11:42;;;;;;;3.50;3.20;;;;;;;12.05;67.24;96767.09;4948557;28;20258;-84
2023/11/21 07:14:08;;;;;;;2.63;2.20;;;;;;;12.13;66.37;96777.78;4942348;28;20865;-83
2023/11/21 07:16:37;;;;;;;2.88;2.58;;;;;;;12.20;66.84;96774.91;4953968;28;20321;-84
2023/11/21 07:19:07;;;;;;;2.95;2.17;;;;;;;12.22;66.50;96783.25;4936460;28;20838;-83
2023/11/21 07:21:33;;;;;;;5.90;2.50;;;;;;;11.99;67.66;96779.34;4944388;28;20286;-84
2023/11/21 07:24:00;;;;;;;3.35;2.40;;;;;;;12.16;66.83;96790.28;4950210;28;20791;-84
2023/11/21 07:26:26;;;;;;;3.80;2.85;;;;;;;12.08;67.20;96793.44;4971050;28;20640;-83
2023/11/21 07:28:52;;;;;;;3.25;2.25;;;;;;;12.08;67.49;96796.06;4951390;28;20251;-83
2023/11/21 07:31:17;;;;;;;4.40;2.80;;;;;;;12.04;66.91;96784.56;4941665;28;20363;-83
2023/11/21 07:33:42;;;;;;;3.95;2.50;;;;;;;12.14;67.39;96786.38;4944473;28;20620;-84
2023/11/21 07:36:08;;;;;;;4.78;2.10;;;;;;;12.11;66.56;96792.91;4946865;28;20718;-83
2023/11/21 07:38:33;;;;;;;5.20;2.30;;;;;;;12.14;66.92;96792.38;4960857;28;20373;-83
2023/11/21 07:41:01;;;;;;;5.18;3.92;;;;;;;12.10;66.96;96791.34;4939620;28;20351;-83
2023/11/21 07:43:26;;;;;;;4.55;3.53;;;;;;;12.14;66.66;96796.81;4931539;28;20329;-83
2023/11/21 07:45:52;;;;;;;3.92;3.33;;;;;;;12.08;67.10;96805.69;4936699;28;20356;-83
2023/11/21 07:48:17;;;;;;;5.05;2.75;;;;;;;12.13;67.40;96809.09;4948382;28;20265;-83
2023/11/21 07:50:43;;;;;;;4.05;2.90;;;;;;;12.12;66.75;96817.19;4942991;28;20315;-84
2023/11/21 07:53:09;;;;;;;5.10;3.08;;;;;;;12.15;66.94;96816.66;4947506;28;20168;-83
2023/11/21 07:55:36;;;;;;;4.00;3.30;;;;;;;12.04;66.89;96823.69;4945023;28;20191;-83
2023/11/21 07:58:01;;;;;;;5.15;3.50;;;;;;;12.13;66.69;96824.75;4970009;28;20188;-82
2023/11/21 08:00:30;;;;;;;3.72;2.90;;;;;;;12.16;67.16;96839.88;4951858;28;20655;-83
2023/11/21 08:02:55;;;;;;;3.50;2.83;;;;;;;12.17;66.28;96838.84;4932445;28;20277;-84
2023/11/21 08:05:20;;;;;;;3.67;3.17;;;;;;;12.06;66.50;96841.72;4947979;28;20219;-83
2023/11/21 08:07:46;;;;;;;3.65;2.88;;;;;;;12.05;67.39;96842.75;4956543;28;20631;-83
2023/11/21 08:10:11;;;;;;;5.13;3.60;;;;;;;12.11;66.70;96858.13;4952682;28;20336;-84
2023/11/21 08:12:36;;;;;;;5.43;4.00;;;;;;;12.16;66.46;96852.13;4948679;28;20110;-84
2023/11/21 08:15:03;;;;;;;5.20;3.92;;;;;;;12.08;66.62;96848.25;4941575;28;20204;-84
2023/11/21 08:17:29;;;;;;;4.45;3.85;;;;;;;12.05;66.82;96848.75;4942123;28;20199;-85
2023/11/21 08:19:54;;;;;;;5.15;4.40;;;;;;;12.12;66.32;96849.28;4937053;28;20728;-84
2023/11/21 08:22:20;;;;;;;4.65;3.75;;;;;;;12.13;66.19;96861.28;4941371;28;20187;-84
2023/11/21 08:24:46;;;;;;;3.65;3.13;;;;;;;12.22;66.03;96860.75;4927864;28;20414;-84
2023/11/21 08:27:16;;;;;;;3.83;3.25;;;;;;;12.12;66.67;96864.94;4932404;28;20339;-83
2023/11/21 08:29:42;;;;;;;3.80;2.80;;;;;;;12.01;66.57;96846.94;4957460;28;20293;-84
2023/11/21 08:32:07;;;;;;;3.17;2.88;;;;;;;12.07;66.40;96862.31;4929613;28;20277;-84
2023/11/21 08:34:33;;;;;;;4.18;3.10;;;;;;;12.02;67.24;96862.31;4938626;28;20169;-84
2023/11/21 08:36:58;;;;;;;3.95;2.78;;;;;;;12.06;66.62;96863.34;4918007;28;20181;-85
2023/11/21 08:39:24;;;;;;;5.07;3.67;;;;;;;12.03;67.43;96865.72;4937811;28;20177;-84
2023/11/21 08:41:50;;;;;;;5.45;3.20;;;;;;;12.03;66.47;96876.16;4950316;28;20585;-85
2023/11/21 08:44:18;;;;;;;4.40;2.75;;;;;;;11.96;67.35;96871.97;4934861;28;20258;-84
2023/11/21 08:46:45;;;;;;;3.00;2.60;;;;;;;11.96;67.58;96865.97;4954546;28;20215;-84
2023/11/21 08:49:11;;;;;;;3.75;2.92;;;;;;;12.03;67.61;96874.34;4930284;28;20192;-85
2023/11/21 08:51:37;;;;;;;5.47;3.00;;;;;;;11.95;67.76;96874.84;4933415;28;20173;-84
2023/11/21 08:54:07;;;;;;;3.47;2.70;;;;;;;12.03;66.80;96876.94;4944572;28;20110;-85
2023/11/21 08:56:33;;;;;;;3.22;2.83;;;;;;;11.95;67.48;96872.25;4918828;28;20215;-85
2023/11/21 08:59:00;;;;;;;4.13;3.20;;;;;;;12.15;67.02;96887.91;4970839;28;20250;-83
2023/11/21 09:01:25;;;;;;;5.07;3.00;;;;;;;12.09;67.06;96893.38;4947618;28;20373;-85
2023/11/21 09:03:51;;;;;;;3.92;2.63;;;;;;;12.13;67.27;96889.19;4927725;28;20623;-84
2023/11/21 09:06:16;;;;;;;3.60;2.67;;;;;;;12.10;67.57;96894.97;4943554;28;20638;-84
2023/11/21 09:08:42;;;;;;;5.07;2.90;;;;;;;11.99;67.02;96888.94;4924201;28;20205;-84
2023/11/21 09:11:08;;;;;;;4.32;2.25;;;;;;;12.04;66.96;96899.38;4937309;28;20761;-84
2023/11/21 09:13:34;;;;;;;4.10;2.40;;;;;;;12.06;67.38;96899.88;4949404;28;20192;-84
2023/11/21 09:15:59;;;;;;;3.13;2.70;;;;;;;12.10;66.46;96890.50;4930320;28;20290;-83
2023/11/21 09:18:25;;;;;;;3.00;2.40;;;;;;;12.08;66.73;96897.81;4932871;28;20342;-83
2023/11/21 09:20:51;;;;;;;3.75;2.53;;;;;;;12.11;66.69;96905.13;4930821;28;20285;-84
2023/11/21 09:23:16;;;;;;;3.08;2.15;;;;;;;12.10;66.28;96903.56;4949179;28;20221;-84
2023/11/21 09:25:42;;;;;;;4.43;2.45;;;;;;;12.14;66.81;96928.09;4932944;28;20204;-83
2023/11/21 09:28:08;;;;;;;2.97;2.30;;;;;;;12.10;66.85;96924.44;4951447;28;20266;-83
2023/11/21 09:30:35;;;;;;;2.63;2.10;;;;;;;12.02;66.93;96913.72;4927554;28;20216;-83
2023/11/21 09:33:00;;;;;;;2.90;2.25;;;;;;;12.06;67.31;96920.00;4950967;28;20191;-83
2023/11/21 09:35:27;;;;;;;5.00;3.08;;;;;;;12.05;66.46;96921.81;4919353;28;20410;-83
2023/11/21 09:37:53;;;;;;;3.50;2.20;;;;;;;12.20;66.87;96923.66;4941989;28;20274;-83
2023/11/21 09:40:22;;;;;;;5.32;2.47;;;;;;;12.22;66.63;96932.03;4959773;28;20180;-83
2023/11/21 09:42:57;;;;;;;3.30;2.30;;;;;;;12.24;67.51;96934.38;4930477;28;20967;-83
2023/11/21 09:45:26;;;;;;;;;;;;;;;12.40;65.68;96938.53;4949435;28;20274;-83
2023/11/21 09:47:56;;;;;;;4.30;2.97;;;;;;;12.32;66.19;96931.22;4951566;28;20082;-84
2023/11/21 09:50:22;;;;;;;3.47;2.20;;;;;;;12.18;66.91;96944.81;4940370;28;20199;-84
2023/11/21 09:53:20;;;;;;;2.72;2.30;;;;;;;12.43;66.58;96951.06;4951395;28;20403;-83
2023/11/21 09:55:51;;;;;;;3.85;2.55;;;;;;;12.21;67.06;96953.16;4941905;28;20752;-83
2023/11/21 09:58:17;;;;;;;2.38;2.10;;;;;;;12.09;66.69;96938.53;4941223;28;20165;-83
2023/11/21 10:00:47;;;;;;;3.00;2.25;;;;;;;12.30;66.65;96951.59;4950688;28;20280;-84
2023/11/21 10:03:13;;;;;;;3.00;2.13;;;;;;;12.26;67.05;96956.53;4948773;28;20200;-83
2023/11/21 10:05:40;;;;;;;3.83;2.67;;;;;;;12.28;66.46;96954.44;4927195;28;20350;-84
2023/11/21 10:08:08;;;;;;;3.17;2.80;;;;;;;12.32;66.51;96962.53;4938779;28;20204;-83
2023/11/21 10:10:35;;;;;;;3.97;2.78;;;;;;;12.29;65.89;96953.41;4950689;28;20178;-83
2023/11/21 10:13:05;;;;;;;3.72;3.03;;;;;;;12.28;66.73;96964.91;4928462;28;20686;-84
2023/11/21 10:15:31;;;;;;;4.90;3.50;;;;;;;12.04;66.70;96969.06;4947892;28;20168;-83
2023/11/21 10:17:56;;;;;;;6.25;5.15;;;;;;;12.16;66.77;96967.75;4928747;28;20195;-85
2023/11/21 10:20:25;;;;;;;5.90;4.80;;;;;;;12.30;66.78;96978.50;4956986;28;20189;-85
2023/11/21 10:22:51;;;;;;;7.03;4.07;;;;;;;12.16;66.85;96977.41;4919088;28;20192;-84
2023/11/21 10:25:18;;;;;;;4.45;3.72;;;;;;;12.20;66.92;96983.72;4951322;28;20457;-84
2023/11/21 10:27:47;;;;;;;6.13;4.25;;;;;;;12.32;66.00;96973.00;4929725;28;20216;-83
2023/11/21 10:30:12;;;;;;;5.82;4.00;;;;;;;12.25;66.63;96975.88;4932197;28;20259;-84
2023/11/21 10:32:40;;;;;;;6.10;4.00;;;;;;;12.27;66.33;96975.59;4931479;28;20695;-83
2023/11/21 10:35:09;;;;;;;3.97;2.53;;;;;;;12.34;66.04;96989.97;4946018;28;20210;-84
2023/11/21 10:37:44;;;;;;;6.88;3.92;;;;;;;12.36;66.65;96977.44;4942537;28;20173;-84
2023/11/21 10:40:13;;;;;;;10.73;5.13;;;;;;;12.30;67.21;96993.34;4942811;28;20249;-81
2023/11/21 10:42:40;;;;;;;10.38;6.25;;;;;;;12.29;66.53;96978.75;4956561;28;20152;-83
2023/11/21 10:45:14;;;;;;;5.97;3.85;;;;;;;12.34;66.54;96989.19;4949025;28;20227;-84
2023/11/21 10:47:44;;;;;;;5.03;2.92;;;;;;;12.50;66.73;96995.22;4942975;28;20266;-84
2023/11/21 10:50:11;;;;;;;5.50;3.20;;;;;;;12.44;67.00;96991.03;4925506;28;20139;-84
2023/11/21 10:52:47;;;;;;;9.98;5.40;;;;;;;12.43;66.75;96995.47;4924592;28;20648;-83
2023/11/21 10:55:23;;;;;;;14.13;7.53;;;;;;;12.35;66.17;96991.56;4980112;28;20168;-83
2023/11/21 10:57:53;;;;;;;4.85;3.03;;;;;;;12.36;66.81;97008.00;4931362;28;20290;-82
2023/11/21 11:00:21;;;;;;;10.70;6.75;;;;;;;12.22;66.58;96994.66;4958396;28;20140;-83
2023/11/21 11:02:50;;;;;;;13.68;7.28;;;;;;;12.30;66.60;96999.38;4913880;28;20264;-83
2023/11/21 11:05:19;;;;;;;10.27;5.07;;;;;;;12.31;67.01;97000.16;4927669;28;20238;-83
2023/11/21 11:08:02;;;;;;;15.18;7.63;;;;;;;12.31;66.89;96997.53;4950251;28;20197;-83
2023/11/21 11:10:29;;;;;;;18.58;9.55;;;;;;;12.37;66.66;97004.31;4921923;28;20246;-84
2023/11/21 11:12:55;;;;;;;8.30;4.88;;;;;;;12.11;66.96;96986.00;4950198;28;20259;-82
2023/11/21 11:15:21;;;;;;;16.17;8.55;;;;;;;12.20;67.02;96990.72;4959637;28;20273;-81
2023/11/21 11:17:48;;;;;;;39.15;19.52;;;;;;;12.16;67.93;97001.69;4944044;28;20254;-81
2023/11/21 11:20:16;;;;;;;19.65;11.52;;;;;;;12.26;67.40;96998.31;4949234;28;20192;-82
2023/11/21 11:23:03;;;;;;;21.42;11.73;;;;;;;12.30;67.65;97006.41;4951049;28;20282;-83
2023/11/21 11:25:46;;;;;;;9.00;5.00;;;;;;;12.33;67.91;96995.44;4935431;28;20248;-82
2023/11/21 11:28:15;;;;;;;8.85;6.00;;;;;;;12.40;67.84;97001.19;4930837;28;20248;-82
2023/11/21 11:30:52;;;;;;;12.13;6.78;;;;;;;12.27;67.83;96999.09;4935932;28;20181;-81